sensor_id;sensor_type;location;lat;lon;timestamp;pressure;altitude;pressure_sealevel;temperature;humidity
21728;BME280;11026;50.560;17.852;2024-01-27T00:02:16;100155.16;;;4.39;100.00
21728;BME280;11026;50.560;17.852;2024-01-27T00:04:45;100152.56;;;4.34;100.00
21728;BME280;11026;50.560;17.852;2024-01-27T00:07:14;100162.16;;;4.37;100.00
21728;BME280;11026;50.560;17.852;2024-01-27T00:09:41;100177.81;;;4.43;100.00
21728;BME280;11026;50.560;17.852;2024-01-27T00:12:09;100194.44;;;4.40;100.00
21728;BME280;11026;50.560;17.852;2024-01-27T00:14:38;100156.84;;;4.46;100.00
21728;BME280;11026;50.560;17.852;2024-01-27T00:17:07;100179.56;;;4.44;100.00
21728;BME280;11026;50.560;17.852;2024-01-27T00:19:35;100187.44;;;4.44;100.00
21728;BME280;11026;50.560;17.852;2024-01-27T00:22:07;100168.22;;;4.43;100.00
21728;BME280;11026;50.560;17.852;2024-01-27T00:24:35;100193.53;;;4.43;100.00
21728;BME280;11026;50.560;17.852;2024-01-27T00:27:03;100162.09;;;4.43;100.00
21728;BME280;11026;50.560;17.852;2024-01-27T00:29:31;100201.41;;;4.44;100.00
21728;BME280;11026;50.560;17.852;2024-01-27T00:31:58;100207.56;;;4.37;100.00
21728;BME280;11026;50.560;17.852;2024-01-27T00:34:26;100201.44;;;4.38;100.00
21728;BME280;11026;50.560;17.852;2024-01-27T00:36:52;100218.88;;;4.39;100.00
21728;BME280;11026;50.560;17.852;2024-01-27T00:39:20;100219.78;;;4.37;100.00
21728;BME280;11026;50.560;17.852;2024-01-27T00:41:48;100222.44;;;4.34;100.00
21728;BME280;11026;50.560;17.852;2024-01-27T00:44:15;100215.41;;;4.39;100.00
21728;BME280;11026;50.560;17.852;2024-01-27T00:46:42;100227.66;;;4.37;100.00
21728;BME280;11026;50.560;17.852;2024-01-27T00:49:09;100232.00;;;4.38;100.00
21728;BME280;11026;50.560;17.852;2024-01-27T00:51:36;100244.22;;;4.39;100.00
21728;BME280;11026;50.560;17.852;2024-01-27T00:54:03;100236.34;;;4.39;100.00
21728;BME280;11026;50.560;17.852;2024-01-27T00:56:32;100246.81;;;4.43;100.00
21728;BME280;11026;50.560;17.852;2024-01-27T00:59:00;100234.53;;;4.49;100.00
21728;BME280;11026;50.560;17.852;2024-01-27T01:01:29;100236.25;;;4.51;100.00
21728;BME280;11026;50.560;17.852;2024-01-27T01:03:56;100242.38;;;4.53;100.00
21728;BME280;11026;50.560;17.852;2024-01-27T01:06:26;100258.16;;;4.44;100.00
21728;BME280;11026;50.560;17.852;2024-01-27T01:08:56;100252.88;;;4.50;100.00
21728;BME280;11026;50.560;17.852;2024-01-27T01:11:24;100263.31;;;4.53;100.00
21728;BME280;11026;50.560;17.852;2024-01-27T01:13:54;100254.56;;;4.57;100.00
21728;BME280;11026;50.560;17.852;2024-01-27T01:16:21;100268.56;;;4.53;100.00
21728;BME280;11026;50.560;17.852;2024-01-27T01:18:48;100262.44;;;4.56;100.00
21728;BME280;11026;50.560;17.852;2024-01-27T01:21:16;100265.06;;;4.54;100.00
21728;BME280;11026;50.560;17.852;2024-01-27T01:23:43;100263.31;;;4.56;100.00
21728;BME280;11026;50.560;17.852;2024-01-27T01:26:10;100265.06;;;4.54;100.00
21728;BME280;11026;50.560;17.852;2024-01-27T01:28:42;100253.72;;;4.51;99.60
21728;BME280;11026;50.560;17.852;2024-01-27T01:31:11;100244.09;;;4.54;98.55
21728;BME280;11026;50.560;17.852;2024-01-27T01:33:38;100263.41;;;4.44;97.21
21728;BME280;11026;50.560;17.852;2024-01-27T01:36:05;100247.63;;;4.52;96.84
21728;BME280;11026;50.560;17.852;2024-01-27T01:38:33;100248.50;;;4.51;96.37
21728;BME280;11026;50.560;17.852;2024-01-27T01:41:00;100268.66;;;4.44;96.01
21728;BME280;11026;50.560;17.852;2024-01-27T01:43:27;100251.13;;;4.49;94.51
21728;BME280;11026;50.560;17.852;2024-01-27T01:45:54;100246.81;;;4.43;93.61
21728;BME280;11026;50.560;17.852;2024-01-27T01:48:22;100254.66;;;4.45;94.13
21728;BME280;11026;50.560;17.852;2024-01-27T01:50:49;100251.16;;;4.43;94.13
21728;BME280;11026;50.560;17.852;2024-01-27T01:53:17;100244.28;;;4.33;94.13
21728;BME280;11026;50.560;17.852;2024-01-27T01:55:46;100251.31;;;4.25;94.46
21728;BME280;11026;50.560;17.852;2024-01-27T01:58:14;100265.22;;;4.33;93.60
21728;BME280;11026;50.560;17.852;2024-01-27T02:00:41;100250.44;;;4.26;93.08
21728;BME280;11026;50.560;17.852;2024-01-27T02:03:12;100240.88;;;4.18;94.01
21728;BME280;11026;50.560;17.852;2024-01-27T02:05:40;100246.13;;;4.14;93.46
21728;BME280;11026;50.560;17.852;2024-01-27T02:08:07;100249.63;;;4.14;93.78
21728;BME280;11026;50.560;17.852;2024-01-27T02:10:35;100253.09;;;4.18;92.75
21728;BME280;11026;50.560;17.852;2024-01-27T02:13:15;100256.63;;;4.14;93.90
21728;BME280;11026;50.560;17.852;2024-01-27T02:15:46;100256.63;;;4.12;93.61
21728;BME280;11026;50.560;17.852;2024-01-27T02:18:13;100259.22;;;4.14;93.37
21728;BME280;11026;50.560;17.852;2024-01-27T02:20:41;100265.34;;;4.11;92.01
21728;BME280;11026;50.560;17.852;2024-01-27T02:23:08;100267.09;;;4.11;92.46
21728;BME280;11026;50.560;17.852;2024-01-27T02:25:36;100244.47;;;4.05;92.78
21728;BME280;11026;50.560;17.852;2024-01-27T02:28:03;100260.16;;;4.08;92.68
21728;BME280;11026;50.560;17.852;2024-01-27T02:30:30;100265.34;;;4.16;92.00
21728;BME280;11026;50.560;17.852;2024-01-27T02:32:58;100288.94;;;4.13;92.01
21728;BME280;11026;50.560;17.852;2024-01-27T02:35:25;100261.81;;;4.15;91.09
21728;BME280;11026;50.560;17.852;2024-01-27T02:37:54;100274.06;;;4.13;90.78
21728;BME280;11026;50.560;17.852;2024-01-27T02:40:21;100274.03;;;4.21;91.53
21728;BME280;11026;50.560;17.852;2024-01-27T02:42:48;100276.69;;;4.15;91.42
21728;BME280;11026;50.560;17.852;2024-01-27T02:45:19;100274.91;;;4.15;90.34
21728;BME280;11026;50.560;17.852;2024-01-27T02:47:46;100288.06;;;4.09;90.55
21728;BME280;11026;50.560;17.852;2024-01-27T02:50:15;100272.28;;;4.18;89.99
21728;BME280;11026;50.560;17.852;2024-01-27T02:52:42;100281.03;;;4.17;90.25
21728;BME280;11026;50.560;17.852;2024-01-27T02:55:11;100282.78;;;4.20;89.69
21728;BME280;11026;50.560;17.852;2024-01-27T02:57:40;100283.63;;;4.19;90.02
21728;BME280;11026;50.560;17.852;2024-01-27T03:00:08;100295.03;;;4.16;88.84
21728;BME280;11026;50.560;17.852;2024-01-27T03:02:36;100290.63;;;4.15;89.05
21728;BME280;11026;50.560;17.852;2024-01-27T03:05:03;100300.22;;;4.19;88.14
21728;BME280;11026;50.560;17.852;2024-01-27T03:07:31;100270.56;;;4.21;86.41
21728;BME280;11026;50.560;17.852;2024-01-27T03:10:01;100300.25;;;4.16;85.18
21728;BME280;11026;50.560;17.852;2024-01-27T03:12:29;100300.25;;;4.16;86.07
21728;BME280;11026;50.560;17.852;2024-01-27T03:14:57;100314.25;;;4.06;86.81
21728;BME280;11026;50.560;17.852;2024-01-27T03:17:25;100310.72;;;4.15;86.12
21728;BME280;11026;50.560;17.852;2024-01-27T03:19:52;100307.22;;;4.14;86.47
21728;BME280;11026;50.560;17.852;2024-01-27T03:22:20;100322.97;;;4.13;86.73
21728;BME280;11026;50.560;17.852;2024-01-27T03:24:49;100319.47;;;4.12;86.07
21728;BME280;11026;50.560;17.852;2024-01-27T03:27:18;100321.22;;;4.07;86.92
21728;BME280;11026;50.560;17.852;2024-01-27T03:29:45;100324.72;;;4.06;87.15
21728;BME280;11026;50.560;17.852;2024-01-27T03:32:13;100327.34;;;4.08;86.19
21728;BME280;11026;50.560;17.852;2024-01-27T03:34:44;100346.53;;;4.13;85.43
21728;BME280;11026;50.560;17.852;2024-01-27T03:37:14;100340.44;;;4.12;85.48
21728;BME280;11026;50.560;17.852;2024-01-27T03:39:42;100343.91;;;4.11;85.20
21728;BME280;11026;50.560;17.852;2024-01-27T03:42:09;100323.81;;;4.16;83.65
21728;BME280;11026;50.560;17.852;2024-01-27T03:44:38;100335.19;;;4.12;84.38
21728;BME280;11026;50.560;17.852;2024-01-27T03:47:09;100335.19;;;4.09;84.53
21728;BME280;11026;50.560;17.852;2024-01-27T03:49:36;100353.53;;;4.12;84.13
21728;BME280;11026;50.560;17.852;2024-01-27T03:52:06;100352.63;;;4.16;84.34
21728;BME280;11026;50.560;17.852;2024-01-27T03:54:37;100361.41;;;4.06;84.95
21728;BME280;11026;50.560;17.852;2024-01-27T03:57:04;100343.06;;;4.12;84.36
21728;BME280;11026;50.560;17.852;2024-01-27T03:59:31;100356.13;;;4.08;85.26
21728;BME280;11026;50.560;17.852;2024-01-27T04:02:03;100374.47;;;4.06;84.63
21728;BME280;11026;50.560;17.852;2024-01-27T04:04:31;100338.72;;;4.08;83.30
21728;BME280;11026;50.560;17.852;2024-01-27T04:06:59;100356.19;;;4.02;84.88
21728;BME280;11026;50.560;17.852;2024-01-27T04:09:30;100370.16;;;3.98;84.67
21728;BME280;11026;50.560;17.852;2024-01-27T04:11:58;100380.66;;;3.96;83.54
21728;BME280;11026;50.560;17.852;2024-01-27T04:14:26;100378.91;;;3.92;85.27
21728;BME280;11026;50.560;17.852;2024-01-27T04:16:56;100385.88;;;3.96;84.03
21728;BME280;11026;50.560;17.852;2024-01-27T04:19:25;100409.44;;;3.93;82.51
21728;BME280;11026;50.560;17.852;2024-01-27T04:21:52;100385.00;;;3.95;83.88
21728;BME280;11026;50.560;17.852;2024-01-27T04:24:19;100392.00;;;3.93;84.89
21728;BME280;11026;50.560;17.852;2024-01-27T04:26:46;100392.88;;;3.91;85.25
21728;BME280;11026;50.560;17.852;2024-01-27T04:29:13;100393.72;;;3.91;84.86
21728;BME280;11026;50.560;17.852;2024-01-27T04:31:42;100383.28;;;3.84;84.51
21728;BME280;11026;50.560;17.852;2024-01-27T04:34:10;100369.31;;;3.86;84.21
21728;BME280;11026;50.560;17.852;2024-01-27T04:36:37;100399.88;;;3.86;84.56
21728;BME280;11026;50.560;17.852;2024-01-27T04:39:05;100396.41;;;3.72;85.11
21728;BME280;11026;50.560;17.852;2024-01-27T04:41:32;100399.88;;;3.83;84.04
21728;BME280;11026;50.560;17.852;2024-01-27T04:43:59;100392.91;;;3.79;84.75
21728;BME280;11026;50.560;17.852;2024-01-27T04:46:28;100417.31;;;3.87;82.82
21728;BME280;11026;50.560;17.852;2024-01-27T04:48:55;100405.09;;;3.83;82.68
21728;BME280;11026;50.560;17.852;2024-01-27T04:51:23;100402.47;;;3.86;83.30
21728;BME280;11026;50.560;17.852;2024-01-27T04:53:50;100416.44;;;3.85;83.65
21728;BME280;11026;50.560;17.852;2024-01-27T04:56:18;100394.63;;;3.83;83.24
21728;BME280;11026;50.560;17.852;2024-01-27T04:58:46;100412.09;;;3.81;82.99
21728;BME280;11026;50.560;17.852;2024-01-27T05:01:13;100420.84;;;3.77;82.71
21728;BME280;11026;50.560;17.852;2024-01-27T05:03:40;100424.28;;;3.88;83.20
21728;BME280;11026;50.560;17.852;2024-01-27T05:06:11;100420.84;;;3.67;83.58
21728;BME280;11026;50.560;17.852;2024-01-27T05:08:38;100408.63;;;3.66;85.36
21728;BME280;11026;50.560;17.852;2024-01-27T05:11:06;100408.63;;;3.73;84.25
21728;BME280;11026;50.560;17.852;2024-01-27T05:13:33;100401.66;;;3.73;85.20
21728;BME280;11026;50.560;17.852;2024-01-27T05:16:00;100426.09;;;3.61;84.97
21728;BME280;11026;50.560;17.852;2024-01-27T05:18:30;100425.22;;;3.68;85.01
21728;BME280;11026;50.560;17.852;2024-01-27T05:20:57;100429.56;;;3.63;84.91
21728;BME280;11026;50.560;17.852;2024-01-27T05:23:25;100419.94;;;3.75;85.21
21728;BME280;11026;50.560;17.852;2024-01-27T05:25:53;100430.44;;;3.68;85.11
21728;BME280;11026;50.560;17.852;2024-01-27T05:28:23;100440.03;;;3.66;85.01
21728;BME280;11026;50.560;17.852;2024-01-27T05:30:50;100449.63;;;3.60;83.81
21728;BME280;11026;50.560;17.852;2024-01-27T05:33:18;100440.03;;;3.73;84.67
21728;BME280;11026;50.560;17.852;2024-01-27T05:35:45;100441.78;;;3.70;83.22
21728;BME280;11026;50.560;17.852;2024-01-27T05:38:12;100444.38;;;3.70;83.22
21728;BME280;11026;50.560;17.852;2024-01-27T05:40:39;100439.16;;;3.74;83.41
21728;BME280;11026;50.560;17.852;2024-01-27T05:43:08;100437.41;;;3.66;83.91
21728;BME280;11026;50.560;17.852;2024-01-27T05:45:36;100461.84;;;3.52;82.22
21728;BME280;11026;50.560;17.852;2024-01-27T05:48:05;100460.13;;;3.64;83.08
21728;BME280;11026;50.560;17.852;2024-01-27T05:50:32;100447.03;;;3.61;83.91
21728;BME280;11026;50.560;17.852;2024-01-27T05:53:01;100456.63;;;3.53;84.49
21728;BME280;11026;50.560;17.852;2024-01-27T05:55:29;100450.53;;;3.45;83.02
21728;BME280;11026;50.560;17.852;2024-01-27T05:57:56;100456.63;;;3.53;82.87
21728;BME280;11026;50.560;17.852;2024-01-27T06:00:25;100446.16;;;3.49;82.81
21728;BME280;11026;50.560;17.852;2024-01-27T06:02:52;100453.13;;;3.50;82.79
21728;BME280;11026;50.560;17.852;2024-01-27T06:05:19;100457.50;;;3.44;82.49
21728;BME280;11026;50.560;17.852;2024-01-27T06:07:47;100456.59;;;3.52;82.97
21728;BME280;11026;50.560;17.852;2024-01-27T06:10:16;100461.84;;;3.47;81.39
21728;BME280;11026;50.560;17.852;2024-01-27T06:12:46;100486.25;;;3.35;81.77
21728;BME280;11026;50.560;17.852;2024-01-27T06:15:14;100457.50;;;3.46;82.05
21728;BME280;11026;50.560;17.852;2024-01-27T06:17:42;100448.78;;;3.41;81.28
21728;BME280;11026;50.560;17.852;2024-01-27T06:20:10;100466.22;;;3.42;81.08
21728;BME280;11026;50.560;17.852;2024-01-27T06:22:37;100467.09;;;3.45;81.53
21728;BME280;11026;50.560;17.852;2024-01-27T06:25:05;100445.28;;;3.43;80.55
21728;BME280;11026;50.560;17.852;2024-01-27T06:27:34;100461.84;;;3.42;80.62
21728;BME280;11026;50.560;17.852;2024-01-27T06:30:02;100457.50;;;3.49;80.31
21728;BME280;11026;50.560;17.852;2024-01-27T06:32:29;100457.47;;;3.40;80.92
21728;BME280;11026;50.560;17.852;2024-01-27T06:34:56;100467.97;;;3.37;80.52
21728;BME280;11026;50.560;17.852;2024-01-27T06:37:23;100460.97;;;3.40;79.09
21728;BME280;11026;50.560;17.852;2024-01-27T06:39:50;100463.59;;;3.51;79.69
21728;BME280;11026;50.560;17.852;2024-01-27T06:42:20;100476.69;;;3.45;79.82
21728;BME280;11026;50.560;17.852;2024-01-27T06:44:47;100481.91;;;3.42;79.87
21728;BME280;11026;50.560;17.852;2024-01-27T06:47:16;100495.88;;;3.38;79.10
21728;BME280;11026;50.560;17.852;2024-01-27T06:49:43;100450.53;;;3.37;79.71
21728;BME280;11026;50.560;17.852;2024-01-27T06:52:13;100499.34;;;3.52;79.20
21728;BME280;11026;50.560;17.852;2024-01-27T06:54:40;100507.22;;;3.37;79.11
21728;BME280;11026;50.560;17.852;2024-01-27T06:57:20;100506.31;;;3.44;79.72
21728;BME280;11026;50.560;17.852;2024-01-27T06:59:50;100505.47;;;3.45;79.80
21728;BME280;11026;50.560;17.852;2024-01-27T07:02:24;100522.03;;;3.38;80.69
21728;BME280;11026;50.560;17.852;2024-01-27T07:04:55;100522.91;;;3.37;79.93
21728;BME280;11026;50.560;17.852;2024-01-27T07:07:26;100521.13;;;3.34;80.06
21728;BME280;11026;50.560;17.852;2024-01-27T07:09:58;100513.25;;;3.20;81.99
21728;BME280;11026;50.560;17.852;2024-01-27T07:12:26;100538.56;;;3.26;81.82
21728;BME280;11026;50.560;17.852;2024-01-27T07:14:56;100514.16;;;3.26;82.04
21728;BME280;11026;50.560;17.852;2024-01-27T07:17:24;100535.91;;;3.12;83.79
21728;BME280;11026;50.560;17.852;2024-01-27T07:19:51;100500.19;;;3.07;84.15
21728;BME280;11026;50.560;17.852;2024-01-27T07:22:19;100501.94;;;3.23;82.19
21728;BME280;11026;50.560;17.852;2024-01-27T07:24:47;100495.84;;;3.19;83.46
21728;BME280;11026;50.560;17.852;2024-01-27T07:27:19;100480.13;;;3.16;82.88
21728;BME280;11026;50.560;17.852;2024-01-27T07:29:46;100490.63;;;3.23;84.50
21728;BME280;11026;50.560;17.852;2024-01-27T07:32:13;100500.19;;;3.10;84.76
21728;BME280;11026;50.560;17.852;2024-01-27T07:34:42;100490.59;;;3.10;84.46
21728;BME280;11026;50.560;17.852;2024-01-27T07:37:10;100503.66;;;3.16;84.83
21728;BME280;11026;50.560;17.852;2024-01-27T07:39:36;100489.72;;;3.20;83.67
21728;BME280;11026;50.560;17.852;2024-01-27T07:42:03;100481.03;;;3.28;82.66
21728;BME280;11026;50.560;17.852;2024-01-27T07:44:30;100494.97;;;3.22;84.76
21728;BME280;11026;50.560;17.852;2024-01-27T07:46:58;100502.84;;;3.33;83.04
21728;BME280;11026;50.560;17.852;2024-01-27T07:49:27;100504.56;;;3.43;82.48
21728;BME280;11026;50.560;17.852;2024-01-27T07:51:55;100494.97;;;3.48;83.97
21728;BME280;11026;50.560;17.852;2024-01-27T07:54:23;100513.31;;;3.60;81.90
21728;BME280;11026;50.560;17.852;2024-01-27T07:56:50;100517.66;;;3.55;81.17
21728;BME280;11026;50.560;17.852;2024-01-27T07:59:18;100539.47;;;3.54;83.09
21728;BME280;11026;50.560;17.852;2024-01-27T08:01:46;100517.66;;;3.58;81.27
21728;BME280;11026;50.560;17.852;2024-01-27T08:04:13;100517.66;;;3.60;80.67
21728;BME280;11026;50.560;17.852;2024-01-27T08:06:47;100513.31;;;3.66;81.03
21728;BME280;11026;50.560;17.852;2024-01-27T08:09:15;100527.25;;;3.59;81.45
21728;BME280;11026;50.560;17.852;2024-01-27T08:11:43;100522.03;;;3.65;80.99
21728;BME280;11026;50.560;17.852;2024-01-27T08:14:12;100539.50;;;3.60;81.31
21728;BME280;11026;50.560;17.852;2024-01-27T08:16:39;100535.13;;;3.70;81.05
21728;BME280;11026;50.560;17.852;2024-01-27T08:19:08;100527.28;;;3.73;81.37
21728;BME280;11026;50.560;17.852;2024-01-27T08:21:36;100584.81;;;3.59;81.09
21728;BME280;11026;50.560;17.852;2024-01-27T08:24:04;100545.59;;;3.58;80.96
21728;BME280;11026;50.560;17.852;2024-01-27T08:26:31;100521.16;;;3.74;79.83
21728;BME280;11026;50.560;17.852;2024-01-27T08:28:59;100563.03;;;3.66;79.78
21728;BME280;11026;50.560;17.852;2024-01-27T08:31:26;100566.53;;;3.65;80.00
21728;BME280;11026;50.560;17.852;2024-01-27T08:33:53;100549.09;;;3.64;80.54
21728;BME280;11026;50.560;17.852;2024-01-27T08:36:21;100540.34;;;3.68;80.85
21728;BME280;11026;50.560;17.852;2024-01-27T08:38:48;100535.97;;;3.75;80.56
21728;BME280;11026;50.560;17.852;2024-01-27T08:41:17;100544.69;;;3.76;81.51
21728;BME280;11026;50.560;17.852;2024-01-27T08:43:44;100536.88;;;3.73;80.38
21728;BME280;11026;50.560;17.852;2024-01-27T08:46:11;100520.28;;;3.89;80.09
21728;BME280;11026;50.560;17.852;2024-01-27T08:48:40;100556.03;;;3.79;81.30
21728;BME280;11026;50.560;17.852;2024-01-27T08:51:10;100534.22;;;3.76;80.08
21728;BME280;11026;50.560;17.852;2024-01-27T08:53:39;100550.81;;;3.79;81.45
21728;BME280;11026;50.560;17.852;2024-01-27T08:56:06;100558.69;;;3.81;82.39
21728;BME280;11026;50.560;17.852;2024-01-27T08:58:35;100588.34;;;3.92;81.00
21728;BME280;11026;50.560;17.852;2024-01-27T09:01:03;100563.88;;;3.91;80.32
21728;BME280;11026;50.560;17.852;2024-01-27T09:03:32;100580.47;;;3.83;81.68
21728;BME280;11026;50.560;17.852;2024-01-27T09:05:59;100569.13;;;3.87;80.15
21728;BME280;11026;50.560;17.852;2024-01-27T09:08:26;100577.84;;;3.83;80.78
21728;BME280;11026;50.560;17.852;2024-01-27T09:10:55;100609.28;;;3.86;81.18
21728;BME280;11026;50.560;17.852;2024-01-27T09:13:23;100542.06;;;4.02;80.89
21728;BME280;11026;50.560;17.852;2024-01-27T09:15:50;100577.88;;;3.86;81.16
21728;BME280;11026;50.560;17.852;2024-01-27T09:18:17;100548.16;;;3.99;81.49
21728;BME280;11026;50.560;17.852;2024-01-27T09:20:45;100558.66;;;4.07;81.99
21728;BME280;11026;50.560;17.852;2024-01-27T09:23:14;100556.91;;;4.04;81.43
21728;BME280;11026;50.560;17.852;2024-01-27T09:25:41;100549.06;;;3.95;81.25
21728;BME280;11026;50.560;17.852;2024-01-27T09:28:08;100563.00;;;3.99;81.04
21728;BME280;11026;50.560;17.852;2024-01-27T09:30:36;100562.13;;;4.10;81.97
21728;BME280;11026;50.560;17.852;2024-01-27T09:33:05;100587.44;;;4.07;80.85
21728;BME280;11026;50.560;17.852;2024-01-27T09:35:33;100550.81;;;4.08;81.68
21728;BME280;11026;50.560;17.852;2024-01-27T09:38:01;100567.38;;;4.07;82.12
21728;BME280;11026;50.560;17.852;2024-01-27T09:40:30;100565.63;;;4.09;84.01
21728;BME280;11026;50.560;17.852;2024-01-27T09:42:59;100564.75;;;4.03;82.67
21728;BME280;11026;50.560;17.852;2024-01-27T09:45:27;100563.00;;;4.17;82.60
21728;BME280;11026;50.560;17.852;2024-01-27T09:47:58;100596.19;;;4.21;82.81
21728;BME280;11026;50.560;17.852;2024-01-27T09:50:27;100581.34;;;4.09;82.04
21728;BME280;11026;50.560;17.852;2024-01-27T09:52:54;100598.78;;;4.19;83.06
21728;BME280;11026;50.560;17.852;2024-01-27T09:55:22;100603.16;;;4.25;83.05
21728;BME280;11026;50.560;17.852;2024-01-27T09:57:50;100581.34;;;4.17;82.69
21728;BME280;11026;50.560;17.852;2024-01-27T10:00:18;100577.88;;;4.04;82.73
21728;BME280;11026;50.560;17.852;2024-01-27T10:02:47;100570.88;;;4.17;83.26
21728;BME280;11026;50.560;17.852;2024-01-27T10:05:15;100539.41;;;4.15;82.59
21728;BME280;11026;50.560;17.852;2024-01-27T10:07:43;100552.53;;;4.12;82.48
21728;BME280;11026;50.560;17.852;2024-01-27T10:10:10;100555.13;;;4.22;83.06
21728;BME280;11026;50.560;17.852;2024-01-27T10:12:42;100552.53;;;4.14;83.32
21728;BME280;11026;50.560;17.852;2024-01-27T10:15:29;100549.91;;;4.22;82.86
21728;BME280;11026;50.560;17.852;2024-01-27T10:18:07;100540.25;;;4.31;82.60
21728;BME280;11026;50.560;17.852;2024-01-27T10:20:37;100560.38;;;4.28;82.33
21728;BME280;11026;50.560;17.852;2024-01-27T10:23:12;100569.06;;;4.45;83.05
21728;BME280;11026;50.560;17.852;2024-01-27T10:25:43;100575.16;;;4.42;82.97
21728;BME280;11026;50.560;17.852;2024-01-27T10:28:10;100547.19;;;4.51;81.18
21728;BME280;11026;50.560;17.852;2024-01-27T10:30:39;100587.34;;;4.59;81.66
21728;BME280;11026;50.560;17.852;2024-01-27T10:33:10;100553.31;;;4.54;81.91
21728;BME280;11026;50.560;17.852;2024-01-27T10:35:41;100580.38;;;4.50;82.35
21728;BME280;11026;50.560;17.852;2024-01-27T10:38:11;100567.28;;;4.50;82.41
21728;BME280;11026;50.560;17.852;2024-01-27T10:40:38;100557.69;;;4.49;81.46
21728;BME280;11026;50.560;17.852;2024-01-27T10:43:08;100584.75;;;4.51;82.27
21728;BME280;11026;50.560;17.852;2024-01-27T10:45:39;100584.81;;;4.36;81.99
21728;BME280;11026;50.560;17.852;2024-01-27T10:48:08;100562.06;;;4.39;82.66
21728;BME280;11026;50.560;17.852;2024-01-27T10:50:40;100560.34;;;4.41;82.90
21728;BME280;11026;50.560;17.852;2024-01-27T10:53:25;100549.88;;;4.31;82.67
21728;BME280;11026;50.560;17.852;2024-01-27T10:55:58;100543.72;;;4.52;82.64
21728;BME280;11026;50.560;17.852;2024-01-27T10:58:30;100537.63;;;4.48;84.38
21728;BME280;11026;50.560;17.852;2024-01-27T11:00:58;100537.56;;;4.57;83.99
21728;BME280;11026;50.560;17.852;2024-01-27T11:03:28;100561.16;;;4.63;82.26
21728;BME280;11026;50.560;17.852;2024-01-27T11:05:57;100544.50;;;4.74;83.20
21728;BME280;11026;50.560;17.852;2024-01-27T11:08:26;100573.34;;;4.66;82.03
21728;BME280;11026;50.560;17.852;2024-01-27T11:11:00;100577.78;;;4.59;81.96
21728;BME280;11026;50.560;17.852;2024-01-27T11:13:30;100566.41;;;4.60;80.67
21728;BME280;11026;50.560;17.852;2024-01-27T11:15:59;100564.66;;;4.61;82.64
21728;BME280;11026;50.560;17.852;2024-01-27T11:18:27;100553.31;;;4.54;82.80
21728;BME280;11026;50.560;17.852;2024-01-27T11:20:55;100563.78;;;4.51;83.10
21728;BME280;11026;50.560;17.852;2024-01-27T11:23:34;100562.09;;;4.44;83.48
21728;BME280;11026;50.560;17.852;2024-01-27T11:26:04;100537.56;;;4.54;84.25
21728;BME280;11026;50.560;17.852;2024-01-27T11:28:32;100554.19;;;4.59;83.49
21728;BME280;11026;50.560;17.852;2024-01-27T11:31:03;100546.28;;;4.65;82.22
21728;BME280;11026;50.560;17.852;2024-01-27T11:33:31;100583.84;;;4.66;81.69
21728;BME280;11026;50.560;17.852;2024-01-27T11:36:02;100610.91;;;4.76;81.82
21728;BME280;11026;50.560;17.852;2024-01-27T11:38:30;100583.84;;;4.75;81.96
21728;BME280;11026;50.560;17.852;2024-01-27T11:41:00;100561.06;;;4.88;82.82
21728;BME280;11026;50.560;17.852;2024-01-27T11:43:29;100576.00;;;4.67;82.04
21728;BME280;11026;50.560;17.852;2024-01-27T11:46:01;100521.84;;;4.57;82.42
21728;BME280;11026;50.560;17.852;2024-01-27T11:48:28;100541.09;;;4.56;84.25
21728;BME280;11026;50.560;17.852;2024-01-27T11:51:11;100541.03;;;4.62;83.02
21728;BME280;11026;50.560;17.852;2024-01-27T11:53:38;100556.75;;;4.72;83.51
21728;BME280;11026;50.560;17.852;2024-01-27T11:56:07;100564.59;;;4.73;82.16
21728;BME280;11026;50.560;17.852;2024-01-27T11:58:35;100594.34;;;4.64;81.95
21728;BME280;11026;50.560;17.852;2024-01-27T12:01:04;100548.84;;;4.75;83.02
21728;BME280;11026;50.560;17.852;2024-01-27T12:03:32;100597.78;;;4.74;84.04
21728;BME280;11026;50.560;17.852;2024-01-27T12:05:59;100564.63;;;4.68;81.78
21728;BME280;11026;50.560;17.852;2024-01-27T12:08:27;100568.94;;;4.77;81.92
21728;BME280;11026;50.560;17.852;2024-01-27T12:10:55;100566.34;;;4.71;82.72
21728;BME280;11026;50.560;17.852;2024-01-27T12:13:24;100527.88;;;4.79;82.53
21728;BME280;11026;50.560;17.852;2024-01-27T12:15:51;100562.88;;;4.64;82.51
21728;BME280;11026;50.560;17.852;2024-01-27T12:18:19;100580.34;;;4.70;82.74
21728;BME280;11026;50.560;17.852;2024-01-27T12:20:54;100597.78;;;4.83;82.29
21728;BME280;11026;50.560;17.852;2024-01-27T12:23:22;100598.63;;;4.87;82.64
21728;BME280;11026;50.560;17.852;2024-01-27T12:25:55;100598.63;;;4.91;82.69
21728;BME280;11026;50.560;17.852;2024-01-27T12:28:23;100595.97;;;4.94;83.06
21728;BME280;11026;50.560;17.852;2024-01-27T12:30:52;100622.19;;;5.01;82.88
21728;BME280;11026;50.560;17.852;2024-01-27T12:33:19;100606.50;;;4.91;82.72
21728;BME280;11026;50.560;17.852;2024-01-27T12:35:51;100619.59;;;4.87;83.44
21728;BME280;11026;50.560;17.852;2024-01-27T12:38:22;100612.59;;;4.95;82.86
21728;BME280;11026;50.560;17.852;2024-01-27T12:40:49;100618.72;;;4.92;82.95
21728;BME280;11026;50.560;17.852;2024-01-27T12:43:17;100629.16;;;4.99;83.97
21728;BME280;11026;50.560;17.852;2024-01-27T12:45:44;100648.41;;;4.99;83.53
21728;BME280;11026;50.560;17.852;2024-01-27T12:48:11;100617.78;;;5.06;83.30
21728;BME280;11026;50.560;17.852;2024-01-27T12:50:39;100621.31;;;5.03;84.06
21728;BME280;11026;50.560;17.852;2024-01-27T12:53:06;100639.63;;;5.06;83.43
21728;BME280;11026;50.560;17.852;2024-01-27T12:55:34;100631.78;;;5.03;83.00